YBHMYBUD

Guest
Details From YBHM - Hamilton I.
To YBUD - Bundaberg
Flight Number -
Tags generated
Created
Modified
Stats Distance 333 nm / 617 km
Max Altitude 35,000 ft / 10,668 m
Waypoints 5
Social Downloads 0
Likes 0
Share VATSIM

Download

Looking for another format? Having issues loading an existing format? Contact us
Advertisement - Login to hide

Notes

Basic altitude profile: - Ascent Rate: 2500ft/min - Ascent Speed: 250kts - Cruise Altitude: 35000ft - Cruise Speed: 420kts - Descent Rate: 1500ft/min - Descent Speed: 250kts Options: - Use NATs: yes - Use PACOTS: yes - Use low airways: yes - Use high airways: yes

Route

YBHM HM Q26 GLA YBUD

ID Type Via Altitude Latitude Longitude Leg Dist Tot Dist Heading (true) Name
O YBHM APT - 0 ft / 0 m -20.35748˚ 148.95164˚ - 0 nm - Hamilton I.
HM VOR - 100 ft / 30 m -20.35111˚ 148.95583˚ 0 nm 0 nm 32° / 32° HAMILTON ISLAND VOR-DME
CAPRI FIX Q26 (AWY-LO) 35,000 ft / 10,668 m -22.26667˚ 150.19000˚ 134 nm 134 nm 149° / 149° -
GLA VOR Q26 (AWY-HI) 17,600 ft / 5,364 m -23.86528˚ 151.20444˚ 111 nm 245 nm 150° / 150° GLADSTONE VOR
O YBUD APT - 0 ft / 0 m -24.90342˚ 152.32022˚ 87 nm 333 nm 136° / 135° Bundaberg

Altitude Profile

Advertisement - Login to hide

Weather


0- 5 10 15 20 25 30 35+ Temperature / ° C

Clouds and Precipitation
Forecast for 2017-12-17 06:00 UTC. Updated 29 minutes ago

Ground ~20,000 ft ~40,000 ft Winds

YBHM

Details ICAO YBHM (HTI)
Name Hamilton I.
Region Australia
Timezone Australia/Lindeman (UTC+10.0)
Stats Elevation 14 ft / 4 m (AMSL)
Location -20.357481° 148.951639°
Runways 1
Magnetic Variation 8.157° E

METAR

YBHM 170530Z AUTO 12019KT 9999 // SCT038 SCT046 28/19 Q1011

Decode

TAF

TAF YBHM 162347Z 1700/1712 12018KT 9999 SCT020 SCT050

Decode

Departure Runways

ID Width Length Bearing (true) Bearing (mag) Surface Threshold Offset Overrun Length
14 148 ft / 45 m 5,792 ft / 1,765 m 143.04° 134.88° Asphalt 0 ft / 0 m 0 ft / 0 m
32 148 ft / 45 m 5,792 ft / 1,765 m 323.03° 314.87° Asphalt 0 ft / 0 m 0 ft / 0 m

YBUD

Details ICAO YBUD (BDB)
Name Bundaberg
Region Australia
Timezone Australia/Brisbane (UTC+10.0)
Stats Elevation 106 ft / 32 m (AMSL)
Location -24.903419° 152.320218°
Runways 2
Magnetic Variation 10.077° E

METAR

YBUD 170500Z AUTO 10014KT 9999 // SCT074 29/18 Q1013

Decode

TAF

Not found

Destination Runways

ID Width Length Bearing (true) Bearing (mag) Surface Threshold Offset Overrun Length
07 95 ft / 29 m 3,704 ft / 1,129 m 68.50° 58.42° Grass 0 ft / 0 m 0 ft / 0 m
14 98 ft / 30 m 5,042 ft / 1,537 m 147.90° 137.82° Asphalt 331 ft / 101 m 30 ft / 9 m
25 95 ft / 29 m 3,704 ft / 1,129 m 248.50° 238.42° Grass 0 ft / 0 m 0 ft / 0 m
32 98 ft / 30 m 5,042 ft / 1,537 m 327.90° 317.82° Asphalt 0 ft / 0 m 39 ft / 12 m